Sun Valley, CA

12:23 AM PST on March 06, 2015 (GMT -0800)
Valley College Weather Station | Change Station
CLOSE
Current Station
Personal Weather Station
Location: Valley Glen, CA
Elevation: 699 ft
Nearby Weather Stations

Elev 699 ft 34.18 °N, 118.42 °W | Updated 8 seconds ago

Clear
Clear
48.2 °F
Feels Like 48 °F
N
0.0
Wind Variable Wind from NW
Gusts 0.0 mph

Today
High -- | Low -- °F
--% Chance of Precip.
Yesterday
High -- | Low -- °F
Precip. -- in
6:16 AM 5:53 PM
Full, 100% visible
Pressure 30.13 in
Visibility 10.0 miles
Clouds Clear
Windchill 48 °F
Dew Point 31 °F
Humidity 49%
Rainfall in
Snow Depth Not available.
UV 0 out of 12
Pollen 9.10 out of 12
Air Quality Not available.
Flu Activity Not available.
METAR KBUR 060753Z 00000KT 10SM CLR 13/M06 A3016 RMK AO2 SLP202 T01281056 402440067 $

More Conditions Fewer Conditions

Pressure 30.13 in
Visibility 10.0 miles
Clouds Clear
Windchill 48 °F
Dew Point 31 °F
Humidity 49%
Rainfall in
Snow Depth Not available.
UV 0 out of 12
Pollen 9.10 out of 12
Air Quality Not available.
Flu Activity Not available.
METAR KBUR 060753Z 00000KT 10SM CLR 13/M06 A3016 RMK AO2 SLP202 T01281056 402440067 $

More Conditions Fewer Conditions

10-Day Weather Forecast

Almanac

Astronomy

Mar. 06, 2015 Rise Set
Actual Time
Civil Twilight
Nautical Twilight
Astronomical Twilight
Moon
Length of Visible Light
Length of Day
Tomorrow will be .
, % of the Moon is Illuminated

Today's Extremes

State Highs State Lows

Community

WunderPhotos

Upload Photos

1,803,206 photos uploaded!

WunderBlogs® & News

Nearby

Air Quality

  Air Quality AQ Index Pollutant
Not available.

Snow Depth

Station Depth Elevation

Earthquake Activity

City Distance Mag. Time & Date
Minimum magnitude displayed is 2.5.

Coastal Water Temperatures

Place Temperature

Nearby Weather Stations